createdAt,value
2019-04-16T00:01:57.694Z,6.30
2019-04-16T00:04:42.064Z,7.03
2019-04-16T00:07:17.714Z,5.60
2019-04-16T00:09:50.415Z,6.27
2019-04-16T00:12:23.150Z,6.63
2019-04-16T00:14:55.891Z,6.57
2019-04-16T00:17:27.059Z,6.93
2019-04-16T00:19:58.150Z,6.00
2019-04-16T00:22:36.633Z,6.63
2019-04-16T00:25:07.949Z,6.20
2019-04-16T00:27:39.102Z,15.37
2019-04-16T00:30:10.515Z,6.80
2019-04-16T00:32:42.633Z,6.67
2019-04-16T00:35:15.662Z,6.53
2019-04-16T00:37:51.372Z,6.17
2019-04-16T00:40:19.548Z,6.40
2019-04-16T00:42:49.764Z,6.43
2019-04-16T00:45:21.003Z,6.50
2019-04-16T00:47:52.167Z,5.97
2019-04-16T00:50:23.487Z,6.83
2019-04-16T00:52:54.379Z,6.20
2019-04-16T00:55:25.627Z,6.37
2019-04-16T00:57:56.594Z,7.03
2019-04-16T01:00:30.622Z,6.43
2019-04-16T01:03:00.746Z,6.10
2019-04-16T01:05:35.059Z,6.23
2019-04-16T01:08:04.777Z,6.50
2019-04-16T01:10:36.373Z,6.60
2019-04-16T01:13:07.363Z,7.13
2019-04-16T01:15:37.539Z,6.23
2019-04-16T01:18:09.012Z,7.00
2019-04-16T01:20:40.456Z,6.97
2019-04-16T01:23:17.587Z,6.10
2019-04-16T01:25:45.877Z,6.33
2019-04-16T01:28:36.899Z,6.47
2019-04-16T01:31:27.690Z,6.73
2019-04-16T01:34:00.481Z,6.83
2019-04-16T01:36:39.122Z,6.47
2019-04-16T01:39:18.102Z,6.17
2019-04-16T01:41:47.517Z,6.73
2019-04-16T01:44:18.665Z,6.20
2019-04-16T01:46:49.627Z,6.20
2019-04-16T01:49:20.666Z,6.10
2019-04-16T01:51:51.659Z,7.17
2019-04-16T01:54:23.477Z,5.73
2019-04-16T01:56:54.507Z,6.53
2019-04-16T01:59:25.759Z,7.23
2019-04-16T02:01:56.899Z,6.90
2019-04-16T02:04:27.014Z,6.27
2019-04-16T02:06:58.201Z,6.37
2019-04-16T02:09:34.234Z,7.10
2019-04-16T02:12:02.312Z,7.27
2019-04-16T02:14:33.378Z,7.20
2019-04-16T02:17:04.839Z,7.50
2019-04-16T02:19:35.930Z,7.00
2019-04-16T02:22:07.127Z,7.20
2019-04-16T02:24:38.078Z,7.53
2019-04-16T02:27:09.289Z,6.73
2019-04-16T02:29:40.276Z,7.30
2019-04-16T02:32:11.740Z,7.50
2019-04-16T02:34:43.117Z,7.27
2019-04-16T02:37:13.230Z,7.00
2019-04-16T02:39:49.100Z,8.03
2019-04-16T02:42:17.093Z,7.53
2019-04-16T02:44:50.038Z,7.93
2019-04-16T02:47:21.023Z,7.50
2019-04-16T02:49:56.429Z,7.70
2019-04-16T02:52:50.551Z,7.03
2019-04-16T02:55:21.435Z,6.90
2019-04-16T02:58:00.290Z,7.50
2019-04-16T03:00:34.513Z,7.37
2019-04-16T03:03:07.257Z,7.50
2019-04-16T03:05:43.849Z,8.00
2019-04-16T03:08:14.873Z,8.37
2019-04-16T03:10:46.189Z,7.57
2019-04-16T03:13:17.457Z,7.50
2019-04-16T03:15:58.667Z,7.57
2019-04-16T03:18:33.322Z,8.20
2019-04-16T03:21:04.667Z,8.23
2019-04-16T03:23:37.590Z,8.27
2019-04-16T03:26:07.412Z,8.13
2019-04-16T03:28:38.550Z,7.87
2019-04-16T03:31:18.360Z,8.43
2019-04-16T03:33:48.352Z,7.30
2019-04-16T03:36:15.043Z,7.60
2019-04-16T03:38:46.136Z,7.50
2019-04-16T03:41:17.406Z,8.23
2019-04-16T03:43:48.648Z,7.37
2019-04-16T03:46:19.701Z,7.93
2019-04-16T03:48:52.645Z,8.47
2019-04-16T03:51:23.524Z,7.97
2019-04-16T03:53:54.719Z,7.87
2019-04-16T03:56:27.623Z,8.57
2019-04-16T03:58:57.513Z,8.17
2019-04-16T04:01:28.713Z,8.40
2019-04-16T04:03:59.964Z,9.20
2019-04-16T04:06:31.152Z,8.70
2019-04-16T04:09:02.134Z,9.67
2019-04-16T04:11:33.763Z,9.03
2019-04-16T04:14:04.882Z,9.20
2019-04-16T04:16:36.113Z,8.80
2019-04-16T04:19:07.066Z,8.90
2019-04-16T04:21:38.209Z,8.77
2019-04-16T04:24:09.137Z,8.47
2019-04-16T04:26:42.051Z,9.97
2019-04-16T04:29:12.925Z,9.60
2019-04-16T04:31:45.428Z,9.80
2019-04-16T04:34:17.409Z,10.33
2019-04-16T04:36:47.936Z,9.40
2019-04-16T04:39:19.040Z,9.70
2019-04-16T04:41:52.593Z,9.60
2019-04-16T04:44:23.031Z,10.23
2019-04-16T04:46:55.128Z,9.50
2019-04-16T04:49:30.090Z,10.30
2019-04-16T04:51:59.347Z,10.33
2019-04-16T04:54:30.606Z,9.73
2019-04-16T04:57:01.644Z,9.73
2019-04-16T04:59:36.487Z,10.93
2019-04-16T05:02:05.817Z,11.27
2019-04-16T05:04:49.601Z,9.80
2019-04-16T05:07:20.828Z,10.87
2019-04-16T05:09:50.924Z,10.13
2019-04-16T05:12:24.423Z,10.10
2019-04-16T05:14:58.657Z,9.43
2019-04-16T05:17:29.652Z,10.10
2019-04-16T05:20:00.891Z,10.63
2019-04-16T05:22:34.907Z,9.97
2019-04-16T05:25:07.406Z,10.53
2019-04-16T05:27:41.016Z,10.10
2019-04-16T05:30:11.569Z,9.93
2019-04-16T05:32:42.652Z,10.47
2019-04-16T05:35:13.689Z,10.33
2019-04-16T05:37:44.742Z,11.10
2019-04-16T05:40:16.083Z,10.73
2019-04-16T05:42:47.251Z,10.13
2019-04-16T05:45:18.573Z,9.90
2019-04-16T05:47:51.798Z,10.47
2019-04-16T05:50:23.138Z,10.00
2019-04-16T05:52:54.671Z,9.10
2019-04-16T05:55:27.534Z,8.97
2019-04-16T05:57:59.616Z,8.43
2019-04-16T06:00:42.434Z,8.67
2019-04-16T06:03:13.431Z,8.97
2019-04-16T06:05:45.920Z,8.83
2019-04-16T06:08:17.039Z,7.90
2019-04-16T06:10:51.102Z,8.97
2019-04-16T06:13:31.176Z,8.50
2019-04-16T06:16:07.097Z,8.17
2019-04-16T06:18:40.175Z,7.97
2019-04-16T06:21:18.797Z,7.93
2019-04-16T06:24:04.240Z,7.77
2019-04-16T06:26:39.863Z,8.53
2019-04-16T06:29:15.525Z,8.87
2019-04-16T06:31:50.938Z,8.63
2019-04-16T06:34:29.869Z,7.53
2019-04-16T06:37:13.298Z,8.30
2019-04-16T06:39:46.161Z,8.43
2019-04-16T06:42:20.978Z,8.47
2019-04-16T06:44:52.487Z,7.43
2019-04-16T06:47:31.345Z,8.63
2019-04-16T06:50:31.532Z,8.37
2019-04-16T06:53:10.842Z,8.90
2019-04-16T06:55:59.973Z,7.80
2019-04-16T06:58:51.510Z,9.10
2019-04-16T07:01:27.120Z,8.63
2019-04-16T07:03:59.997Z,8.73
2019-04-16T07:06:48.244Z,8.07
2019-04-16T07:09:23.391Z,8.63
2019-04-16T07:11:55.071Z,7.63
2019-04-16T07:14:26.405Z,7.90
2019-04-16T07:17:00.194Z,8.27
2019-04-16T07:19:30.915Z,8.57
2019-04-16T07:22:03.245Z,8.67
2019-04-16T07:24:37.184Z,8.03
2019-04-16T07:27:08.845Z,8.13
2019-04-16T07:29:41.465Z,8.87
2019-04-16T07:32:14.309Z,7.93
2019-04-16T07:34:47.057Z,8.17
2019-04-16T07:37:24.227Z,7.47
2019-04-16T07:39:56.761Z,8.27
2019-04-16T07:42:29.667Z,7.57
2019-04-16T07:45:16.616Z,8.53
2019-04-16T07:48:06.117Z,8.00
2019-04-16T07:50:55.064Z,7.80
2019-04-16T07:53:30.638Z,8.27
2019-04-16T07:56:03.130Z,7.73
2019-04-16T07:58:33.212Z,7.80
2019-04-16T08:01:05.219Z,8.70
2019-04-16T08:03:36.110Z,7.47
2019-04-16T08:06:07.431Z,8.30
2019-04-16T08:08:38.369Z,8.50
2019-04-16T08:11:09.561Z,8.37
2019-04-16T08:13:41.590Z,8.60
2019-04-16T08:16:14.142Z,7.93
2019-04-16T08:18:49.270Z,8.30
2019-04-16T08:21:22.735Z,8.20
2019-04-16T08:23:55.137Z,8.23
2019-04-16T08:26:26.450Z,8.40
2019-04-16T08:28:57.401Z,8.40
2019-04-16T08:31:28.693Z,8.63
2019-04-16T08:33:59.580Z,8.07
2019-04-16T08:36:29.709Z,7.97
2019-04-16T08:39:05.842Z,8.07
2019-04-16T08:41:33.442Z,8.57
2019-04-16T08:44:05.076Z,7.63
2019-04-16T08:46:36.168Z,8.00
2019-04-16T08:49:07.412Z,8.00
2019-04-16T08:51:38.419Z,8.50
2019-04-16T08:54:09.468Z,8.50
2019-04-16T08:56:40.442Z,7.97
2019-04-16T08:59:11.970Z,8.77
2019-04-16T09:01:42.918Z,8.30
2019-04-16T09:04:14.240Z,8.07
2019-04-16T09:06:46.213Z,8.73
2019-04-16T09:09:24.456Z,8.07
2019-04-16T09:11:56.490Z,8.00
2019-04-16T09:14:29.511Z,8.47
2019-04-16T09:17:09.535Z,9.00
2019-04-16T09:19:39.369Z,8.00
2019-04-16T09:22:15.958Z,8.17
2019-04-16T09:24:47.644Z,8.53
2019-04-16T09:27:28.672Z,8.20
2019-04-16T09:30:00.905Z,8.13
2019-04-16T09:32:46.331Z,8.57
2019-04-16T09:35:20.324Z,7.87
2019-04-16T09:38:02.242Z,8.20
2019-04-16T09:40:51.179Z,7.70
2019-04-16T09:43:32.936Z,7.37
2019-04-16T09:46:10.587Z,7.57
2019-04-16T09:48:36.878Z,7.60
2019-04-16T09:51:07.843Z,7.43
2019-04-16T09:53:40.265Z,7.90
2019-04-16T09:56:30.870Z,7.77
2019-04-16T09:59:04.594Z,7.77
2019-04-16T10:01:40.272Z,7.80
2019-04-16T10:04:15.929Z,7.90
2019-04-16T10:06:48.548Z,7.60
2019-04-16T10:09:21.632Z,8.33
2019-04-16T10:11:51.512Z,8.50
2019-04-16T10:14:22.477Z,8.40
2019-04-16T10:16:54.168Z,7.70
2019-04-16T10:19:25.147Z,7.93
2019-04-16T10:21:56.225Z,7.93
2019-04-16T10:24:45.016Z,8.43
2019-04-16T10:27:17.822Z,8.07
2019-04-16T10:29:48.745Z,7.97
2019-04-16T10:32:20.095Z,7.40
2019-04-16T10:35:11.925Z,8.10
2019-04-16T10:37:43.053Z,8.07
2019-04-16T10:40:24.703Z,7.57
2019-04-16T10:43:06.740Z,8.37
2019-04-16T10:45:42.011Z,7.73
2019-04-16T10:48:32.802Z,8.10
2019-04-16T10:51:21.823Z,8.40
2019-04-16T10:54:10.641Z,8.60
2019-04-16T10:56:59.811Z,8.23
2019-04-16T10:59:38.872Z,12.73
2019-04-16T11:02:11.727Z,16.07
2019-04-16T11:05:03.261Z,9.57
2019-04-16T11:07:36.991Z,19.50
2019-04-16T11:10:11.640Z,11.70
2019-04-16T11:12:41.679Z,7.80
2019-04-16T11:15:14.811Z,7.70
2019-04-16T11:17:47.158Z,8.00
2019-04-16T11:20:19.866Z,8.57
2019-04-16T11:22:50.864Z,8.33
2019-04-16T11:25:21.043Z,7.60
2019-04-16T11:27:52.491Z,8.03
2019-04-16T11:30:30.984Z,7.13
2019-04-16T11:33:02.235Z,8.00
2019-04-16T11:35:33.863Z,7.87
2019-04-16T11:38:05.342Z,6.80
2019-04-16T11:40:36.362Z,7.70
2019-04-16T11:43:07.768Z,7.30
2019-04-16T11:45:38.877Z,8.37
2019-04-16T11:48:10.062Z,7.50
2019-04-16T11:50:41.124Z,7.70
2019-04-16T11:53:12.475Z,7.97
2019-04-16T11:55:43.363Z,7.77
2019-04-16T11:58:15.310Z,8.07
2019-04-16T12:00:48.093Z,8.07
2019-04-16T12:03:19.975Z,8.17
2019-04-16T12:06:09.520Z,8.17
2019-04-16T12:08:44.935Z,7.60
2019-04-16T12:11:20.734Z,7.60
2019-04-16T12:14:09.950Z,8.03
2019-04-16T12:16:48.928Z,7.53
2019-04-16T12:19:24.454Z,8.10
2019-04-16T12:22:06.249Z,7.63
2019-04-16T12:24:50.906Z,7.97
2019-04-16T12:27:35.863Z,7.90
2019-04-16T12:30:13.201Z,7.83
2019-04-16T12:33:07.446Z,7.33
2019-04-16T12:35:51.908Z,7.87
2019-04-16T12:38:27.442Z,7.93
2019-04-16T12:41:00.011Z,7.40
2019-04-16T12:43:32.797Z,7.60
2019-04-16T12:46:20.792Z,7.83
2019-04-16T12:49:02.614Z,7.63
2019-04-16T12:51:44.216Z,7.47
2019-04-16T12:54:33.633Z,7.20
2019-04-16T12:57:06.323Z,7.47
2019-04-16T12:59:48.615Z,6.83
2019-04-16T13:02:25.371Z,6.83
2019-04-16T13:05:07.420Z,7.17
2019-04-16T13:07:43.599Z,7.35
2019-04-16T13:10:16.764Z,7.17
2019-04-16T13:12:56.269Z,7.13
2019-04-16T13:15:45.000Z,7.55
2019-04-16T13:18:23.938Z,7.35
2019-04-16T13:20:57.561Z,7.43
2019-04-16T13:23:40.022Z,6.87
2019-04-16T13:26:15.579Z,7.67
2019-04-16T13:28:46.774Z,7.72
2019-04-16T13:31:18.095Z,7.05
2019-04-16T13:33:50.963Z,7.03
2019-04-16T13:36:26.739Z,6.40
2019-04-16T13:41:50.163Z,6.80
2019-04-16T13:44:41.296Z,6.67
2019-04-16T13:47:14.184Z,6.53
2019-04-16T13:49:50.224Z,6.87
2019-04-16T13:52:25.128Z,7.22
2019-04-16T13:55:14.337Z,7.00
2019-04-16T13:57:49.448Z,6.50
2019-04-16T14:00:38.943Z,6.97
2019-04-16T14:03:13.551Z,6.53
2019-04-16T14:05:45.046Z,6.75
2019-04-16T14:08:16.146Z,6.92
2019-04-16T14:10:47.635Z,7.40
2019-04-16T14:13:19.251Z,6.90
2019-04-16T14:15:50.517Z,6.80
2019-04-16T14:18:22.016Z,7.55
2019-04-16T14:20:53.637Z,7.20
2019-04-16T14:23:25.488Z,7.37
2019-04-16T14:25:56.870Z,7.67
2019-04-16T14:28:28.052Z,7.00
2019-04-16T14:30:59.598Z,5.70
2019-04-16T14:36:24.617Z,5.80
2019-04-16T14:38:57.523Z,6.67
2019-04-16T14:41:27.615Z,7.10
2019-04-16T14:44:03.821Z,5.90
2019-04-16T14:46:34.909Z,6.37
2019-04-16T14:49:06.197Z,6.33
2019-04-16T14:51:37.506Z,7.50
2019-04-16T14:54:12.970Z,5.63
2019-04-16T14:56:49.628Z,5.73
2019-04-16T14:59:33.588Z,5.90
2019-04-16T15:01:57.055Z,6.03
2019-04-16T15:04:46.228Z,6.73
2019-04-16T15:07:21.478Z,6.40
2019-04-16T15:10:11.082Z,5.97
2019-04-16T15:12:46.400Z,6.33
2019-04-16T15:15:19.130Z,7.00
2019-04-16T15:18:06.859Z,6.47
2019-04-16T15:20:42.824Z,6.80
2019-04-16T15:23:17.810Z,6.07
2019-04-16T15:25:57.022Z,6.00
2019-04-16T15:28:35.556Z,6.20
2019-04-16T15:31:24.846Z,5.97
2019-04-16T15:34:13.515Z,6.30
2019-04-16T15:36:49.927Z,6.67
2019-04-16T15:39:20.978Z,6.30
2019-04-16T15:41:53.680Z,5.93
2019-04-16T15:44:26.251Z,7.03
2019-04-16T15:47:03.978Z,6.27
2019-04-16T15:49:45.487Z,5.40
2019-04-16T15:52:33.713Z,6.47
2019-04-16T15:55:07.897Z,6.10
2019-04-16T15:57:51.693Z,6.07
2019-04-16T16:00:36.941Z,6.23
2019-04-16T16:03:25.650Z,6.53
2019-04-16T16:06:04.145Z,6.57
2019-04-16T16:08:38.412Z,7.50
2019-04-16T16:11:17.450Z,6.40
2019-04-16T16:13:48.543Z,6.70
2019-04-16T16:16:19.871Z,6.97
2019-04-16T16:18:50.811Z,6.87
2019-04-16T16:21:21.867Z,6.67
2019-04-16T16:23:53.269Z,6.83
2019-04-16T16:26:24.289Z,6.23
2019-04-16T16:28:55.385Z,6.03
2019-04-16T16:31:32.097Z,6.00
2019-04-16T16:34:01.344Z,6.07
2019-04-16T16:36:36.296Z,6.07
2019-04-16T16:39:07.525Z,6.63
2019-04-16T16:41:38.727Z,5.93
2019-04-16T16:44:09.668Z,6.30
2019-04-16T16:46:58.406Z,5.90
2019-04-16T16:49:29.803Z,7.90
2019-04-16T16:52:16.837Z,7.13
2019-04-16T16:54:49.863Z,9.17
2019-04-16T16:57:22.658Z,7.03
2019-04-16T16:59:57.477Z,6.67
2019-04-16T17:02:32.744Z,6.20
2019-04-16T17:05:06.404Z,6.80
2019-04-16T17:07:37.443Z,6.70
2019-04-16T17:10:08.867Z,5.80
2019-04-16T17:12:39.880Z,5.93
2019-04-16T17:15:11.145Z,6.07
2019-04-16T17:17:42.910Z,6.43
2019-04-16T17:20:14.524Z,6.53
2019-04-16T17:22:45.674Z,6.53
2019-04-16T17:25:16.826Z,6.50
2019-04-16T17:27:51.471Z,6.40
2019-04-16T17:30:20.664Z,6.13
2019-04-16T17:32:52.019Z,6.50
2019-04-16T17:35:23.253Z,6.33
2019-04-16T17:38:02.709Z,6.63
2019-04-16T17:40:51.089Z,6.00
2019-04-16T17:43:30.976Z,6.20
2019-04-16T17:46:15.176Z,6.47
2019-04-16T17:48:48.130Z,6.77
2019-04-16T17:51:26.751Z,6.40
2019-04-16T17:54:02.769Z,7.03
2019-04-16T17:56:40.776Z,6.23
2019-04-16T17:59:13.701Z,6.53
2019-04-16T18:01:48.976Z,6.20
2019-04-16T18:04:24.310Z,6.33
2019-04-16T18:06:59.496Z,6.27
2019-04-16T18:09:36.656Z,6.40
2019-04-16T18:12:21.681Z,6.50
2019-04-16T18:15:00.733Z,6.07
2019-04-16T18:17:46.236Z,5.93
2019-04-16T18:20:08.432Z,6.40
2019-04-16T18:22:57.727Z,5.57
2019-04-16T18:25:33.456Z,5.97
2019-04-16T18:28:06.802Z,5.73
2019-04-16T18:30:45.785Z,5.77
2019-04-16T18:33:21.457Z,6.17
2019-04-16T18:36:17.070Z,6.13
2019-04-16T18:39:05.519Z,5.93
2019-04-16T18:41:38.889Z,6.00
2019-04-16T18:44:14.637Z,6.20
2019-04-16T18:46:50.313Z,6.60
2019-04-16T18:49:22.842Z,5.90
2019-04-16T18:51:52.995Z,5.60
2019-04-16T18:54:24.036Z,6.30
2019-04-16T18:56:54.928Z,6.20
2019-04-16T18:59:26.072Z,5.30
2019-04-16T19:02:00.115Z,5.10
2019-04-16T19:04:31.381Z,5.33
2019-04-16T19:07:02.402Z,5.60
2019-04-16T19:09:33.747Z,5.07
2019-04-16T19:12:04.777Z,5.27
2019-04-16T19:14:36.721Z,4.70
2019-04-16T19:17:08.392Z,5.60
2019-04-16T19:19:44.615Z,5.30
2019-04-16T19:22:15.851Z,5.37
2019-04-16T19:24:45.820Z,4.97
2019-04-16T19:27:16.974Z,5.43
2019-04-16T19:29:47.896Z,5.40
2019-04-16T19:32:19.064Z,5.10
2019-04-16T19:34:49.906Z,5.07
2019-04-16T19:37:23.916Z,5.03
2019-04-16T19:39:54.832Z,5.27
2019-04-16T19:42:28.753Z,5.17
2019-04-16T19:44:58.686Z,5.10
2019-04-16T19:47:29.689Z,5.37
2019-04-16T19:50:00.521Z,4.70
2019-04-16T19:52:31.751Z,5.30
2019-04-16T19:55:02.574Z,5.07
2019-04-16T19:57:35.004Z,4.97
2019-04-16T20:00:07.912Z,4.90
2019-04-16T20:02:37.892Z,5.00
2019-04-16T20:05:08.985Z,5.37
2019-04-16T20:07:39.833Z,5.07
2019-04-16T20:10:11.888Z,5.60
2019-04-16T20:12:42.744Z,5.03
2019-04-16T20:15:13.923Z,6.73
2019-04-16T20:17:44.844Z,6.53
2019-04-16T20:20:16.055Z,5.20
2019-04-16T20:22:47.108Z,5.80
2019-04-16T20:25:18.224Z,5.10
2019-04-16T20:27:49.101Z,5.00
2019-04-16T20:30:29.617Z,4.90
2019-04-16T20:33:02.461Z,6.33
2019-04-16T20:35:32.633Z,5.27
2019-04-16T20:38:03.755Z,5.23
2019-04-16T20:40:34.603Z,5.13
2019-04-16T20:43:05.912Z,5.37
2019-04-16T20:45:36.711Z,5.47
2019-04-16T20:48:09.087Z,5.40
2019-04-16T20:50:40.291Z,5.43
2019-04-16T20:53:11.329Z,5.70
2019-04-16T20:55:47.095Z,5.17
2019-04-16T20:58:15.061Z,5.50
2019-04-16T21:00:47.541Z,6.17
2019-04-16T21:03:22.310Z,5.33
2019-04-16T21:05:59.262Z,5.50
2019-04-16T21:08:25.167Z,4.97
2019-04-16T21:10:59.203Z,5.27
2019-04-16T21:13:29.273Z,5.23
2019-04-16T21:16:01.321Z,5.10
2019-04-16T21:18:32.907Z,6.00
2019-04-16T21:21:04.010Z,4.97
2019-04-16T21:23:35.477Z,5.27
2019-04-16T21:26:06.824Z,5.30
2019-04-16T21:28:44.963Z,5.50
2019-04-16T21:31:20.209Z,5.57
2019-04-16T21:33:58.693Z,6.20
2019-04-16T21:36:47.579Z,4.67
2019-04-16T21:39:23.031Z,5.30
2019-04-16T21:42:02.567Z,4.50
2019-04-16T21:44:33.335Z,5.07
2019-04-16T21:47:04.360Z,4.90
2019-04-16T21:49:38.753Z,5.93
2019-04-16T21:52:08.177Z,5.03
2019-04-16T21:54:39.310Z,4.73
2019-04-16T21:57:13.496Z,4.63
2019-04-16T21:59:42.463Z,5.40
2019-04-16T22:02:17.915Z,4.97
2019-04-16T22:04:49.114Z,5.17
2019-04-16T22:07:24.236Z,4.60
2019-04-16T22:09:52.824Z,5.43
2019-04-16T22:12:23.872Z,5.00
2019-04-16T22:14:55.333Z,5.53
2019-04-16T22:17:26.495Z,4.67
2019-04-16T22:20:01.313Z,6.07
2019-04-16T22:22:30.110Z,4.80
2019-04-16T22:25:01.307Z,5.50
2019-04-16T22:27:32.139Z,4.80
2019-04-16T22:30:04.824Z,5.00
2019-04-16T22:32:36.166Z,4.90
2019-04-16T22:35:09.172Z,4.80
2019-04-16T22:37:40.176Z,4.70
2019-04-16T22:40:22.578Z,4.80
2019-04-16T22:43:06.211Z,4.73
2019-04-16T22:45:45.239Z,5.23
2019-04-16T22:48:19.030Z,4.93
2019-04-16T22:50:49.963Z,4.50
2019-04-16T22:53:21.064Z,4.70
2019-04-16T22:55:56.448Z,4.93
2019-04-16T22:58:25.712Z,4.47
2019-04-16T23:00:58.209Z,4.90
2019-04-16T23:03:29.222Z,4.80
2019-04-16T23:06:01.388Z,4.80
2019-04-16T23:08:32.954Z,4.47
2019-04-16T23:11:03.855Z,4.40
2019-04-16T23:13:33.842Z,6.10
2019-04-16T23:16:05.279Z,4.90
2019-04-16T23:18:36.156Z,4.93
2019-04-16T23:21:10.016Z,4.73
2019-04-16T23:23:39.799Z,7.53
2019-04-16T23:26:10.830Z,4.93
2019-04-16T23:28:42.454Z,4.97
2019-04-16T23:31:14.052Z,4.47
2019-04-16T23:33:45.046Z,4.57
2019-04-16T23:36:16.708Z,5.33
2019-04-16T23:38:47.652Z,4.77
2019-04-16T23:41:18.884Z,5.20
2019-04-16T23:43:54.464Z,5.60
2019-04-16T23:46:37.749Z,5.07
2019-04-16T23:49:26.459Z,4.77
2019-04-16T23:52:11.528Z,5.33
2019-04-16T23:54:44.874Z,5.57
2019-04-16T23:57:17.620Z,4.93
2019-04-16T23:59:58.837Z,5.37
